Bena, Minnesota
Current Conditions -  °F | °C
As of 5:15 PM on Thursday 27 Nov 2014 (Local Time) from KY49 Reporting Station
Clear Clear  
Wind Chill:   Ceiling: Unl
Heat Index:   Visibility: 10mi
Dew Point: -6°   Wind: 3mph
Humidity: 60%   Direction: 150°SSE
Pressure: 30.27"   Gusts: NA
Location:  47.34°N, 94.21°W
Report Text: KY49 272315Z AUTO 15003KT 10SM CLR M15/M21 A3027 RMK AO2 T11481211
Loading
Personal Weather Stations






























Interactive Weather Map New forecast layout! Learn more

10-Day Weather Forecast

Advertisements
Track Severe Weather on mobile